createdAt,value
2023-09-28T00:01:23.134Z,14.13
2023-09-28T00:03:50.352Z,11.80
2023-09-28T00:06:17.459Z,13.45
2023-09-28T00:08:44.527Z,11.75
2023-09-28T00:11:11.658Z,13.32
2023-09-28T00:13:38.829Z,11.30
2023-09-28T00:16:06.077Z,13.55
2023-09-28T00:18:33.349Z,16.73
2023-09-28T00:21:00.442Z,11.95
2023-09-28T00:23:27.948Z,12.48
2023-09-28T00:25:55.058Z,14.90
2023-09-28T00:28:22.167Z,12.25
2023-09-28T00:30:49.822Z,14.18
2023-09-28T00:33:17.011Z,15.27
2023-09-28T00:35:44.176Z,17.45
2023-09-28T00:38:11.647Z,14.65
2023-09-28T00:40:41.807Z,12.98
2023-09-28T00:43:08.951Z,15.55
2023-09-28T00:45:36.365Z,16.88
2023-09-28T00:48:04.286Z,13.65
2023-09-28T00:50:32.777Z,12.77
2023-09-28T00:53:01.265Z,14.25
2023-09-28T00:55:28.990Z,14.02
2023-09-28T00:57:59.471Z,16.70
2023-09-28T01:00:30.733Z,15.52
2023-09-28T01:02:58.788Z,16.33
2023-09-28T01:05:27.918Z,15.98
2023-09-28T01:07:57.116Z,16.55
2023-09-28T01:10:24.601Z,16.88
2023-09-28T01:12:52.376Z,17.42
2023-09-28T01:15:20.618Z,21.90
2023-09-28T01:17:47.851Z,20.83
2023-09-28T01:20:31.608Z,19.20
2023-09-28T01:22:58.758Z,17.50
2023-09-28T01:25:27.171Z,19.33
2023-09-28T01:27:55.461Z,18.25
2023-09-28T01:30:24.065Z,18.15
2023-09-28T01:32:51.531Z,19.25
2023-09-28T01:35:18.682Z,17.33
2023-09-28T01:37:56.999Z,16.33
2023-09-28T01:40:24.229Z,17.02
2023-09-28T01:42:51.292Z,15.57
2023-09-28T01:45:18.376Z,15.50
2023-09-28T01:47:45.431Z,17.35
2023-09-28T01:50:12.587Z,18.17
2023-09-28T01:52:39.713Z,17.48
2023-09-28T01:55:06.927Z,16.48
2023-09-28T01:57:34.009Z,19.08
2023-09-28T02:00:01.467Z,19.17
2023-09-28T02:02:28.734Z,19.55
2023-09-28T02:04:56.064Z,17.92
2023-09-28T02:07:23.134Z,17.65
2023-09-28T02:09:50.222Z,16.00
2023-09-28T02:12:17.256Z,19.02
2023-09-28T02:14:44.331Z,22.55
2023-09-28T02:17:11.460Z,16.65
2023-09-28T02:19:40.388Z,18.55
2023-09-28T02:22:07.528Z,19.65
2023-09-28T02:24:34.588Z,17.10
2023-09-28T02:27:01.672Z,16.65
2023-09-28T02:29:28.716Z,18.73
2023-09-28T02:31:55.887Z,17.73
2023-09-28T02:34:23.041Z,19.98
2023-09-28T02:36:50.147Z,16.38
2023-09-28T02:39:17.220Z,17.10
2023-09-28T02:41:44.280Z,17.10
2023-09-28T02:44:11.405Z,14.48
2023-09-28T02:46:38.480Z,13.23
2023-09-28T02:49:07.401Z,19.42
2023-09-28T02:51:34.553Z,18.10
2023-09-28T02:54:01.657Z,16.55
2023-09-28T02:56:28.806Z,18.23
2023-09-28T02:58:55.918Z,18.58
2023-09-28T03:01:23.038Z,15.18
2023-09-28T03:03:51.867Z,13.57
2023-09-28T03:06:21.423Z,19.60
2023-09-28T03:08:49.059Z,14.82
2023-09-28T03:11:16.128Z,16.92
2023-09-28T03:13:43.241Z,16.25
2023-09-28T03:16:10.527Z,17.55
2023-09-28T03:18:37.648Z,16.50
2023-09-28T03:21:05.742Z,16.42
2023-09-28T03:23:33.720Z,15.48
2023-09-28T03:26:00.847Z,19.08
2023-09-28T03:28:27.960Z,15.75
2023-09-28T03:30:55.074Z,18.17
2023-09-28T03:33:22.174Z,16.33
2023-09-28T03:35:49.359Z,22.20
2023-09-28T03:38:16.511Z,20.25
2023-09-28T03:40:44.709Z,19.80
2023-09-28T03:43:12.230Z,19.55
2023-09-28T03:45:40.201Z,18.83
2023-09-28T03:48:07.484Z,22.15
2023-09-28T03:50:34.664Z,22.00
2023-09-28T03:53:01.841Z,22.20
2023-09-28T03:55:28.932Z,18.83
2023-09-28T03:57:56.127Z,20.42
2023-09-28T04:00:23.419Z,18.50
2023-09-28T04:02:54.286Z,17.48
2023-09-28T04:05:22.771Z,21.38
2023-09-28T04:07:50.220Z,18.15
2023-09-28T04:10:18.578Z,17.13
2023-09-28T04:12:47.098Z,17.42
2023-09-28T04:15:14.172Z,16.83
2023-09-28T04:17:44.584Z,17.38
2023-09-28T04:20:13.335Z,19.98
2023-09-28T04:22:40.610Z,18.63
2023-09-28T04:25:08.480Z,16.90
2023-09-28T04:27:35.652Z,18.70
2023-09-28T04:30:02.871Z,18.25
2023-09-28T04:32:30.153Z,17.33
2023-09-28T04:34:57.623Z,17.23
2023-09-28T04:37:27.173Z,15.98
2023-09-28T04:39:54.437Z,13.95
2023-09-28T04:42:21.774Z,16.45
2023-09-28T04:44:50.292Z,17.00
2023-09-28T04:47:17.571Z,16.42
2023-09-28T04:49:46.093Z,18.95
2023-09-28T04:52:14.501Z,15.98
2023-09-28T04:54:41.990Z,16.38
2023-09-28T04:57:09.262Z,17.73
2023-09-28T04:59:39.306Z,14.73
2023-09-28T05:02:06.634Z,17.63
2023-09-28T05:04:33.902Z,15.52
2023-09-28T05:07:01.187Z,17.30
2023-09-28T05:09:28.671Z,18.40
2023-09-28T05:12:00.238Z,12.60
2023-09-28T05:14:27.657Z,15.95
2023-09-28T05:16:56.023Z,16.92
2023-09-28T05:19:23.309Z,17.63
2023-09-28T05:21:50.777Z,15.57
2023-09-28T05:24:18.422Z,18.85
2023-09-28T05:26:45.641Z,16.73
2023-09-28T05:29:12.796Z,18.65
2023-09-28T05:31:40.164Z,19.52
2023-09-28T05:34:08.066Z,14.88
2023-09-28T05:36:36.013Z,15.52
2023-09-28T05:39:04.475Z,16.20
2023-09-28T05:41:32.122Z,15.65
2023-09-28T05:43:59.243Z,14.38
2023-09-28T05:46:26.394Z,14.98
2023-09-28T05:48:53.462Z,14.80
2023-09-28T05:51:20.564Z,15.88
2023-09-28T05:53:49.146Z,14.05
2023-09-28T05:56:16.702Z,15.18
2023-09-28T05:58:43.906Z,15.38
2023-09-28T06:01:14.889Z,18.83
2023-09-28T06:03:42.260Z,20.60
2023-09-28T06:06:14.529Z,17.88
2023-09-28T06:08:41.613Z,17.38
2023-09-28T06:11:13.228Z,15.23
2023-09-28T06:13:52.417Z,17.27
2023-09-28T06:16:26.634Z,16.80
2023-09-28T06:18:53.964Z,13.93
2023-09-28T06:21:21.304Z,15.18
2023-09-28T06:23:48.413Z,17.17
2023-09-28T06:26:26.117Z,19.40
2023-09-28T06:29:02.646Z,15.25
2023-09-28T06:31:30.031Z,16.02
2023-09-28T06:33:57.421Z,13.98
2023-09-28T06:36:41.506Z,15.45
2023-09-28T06:39:10.400Z,14.70
2023-09-28T06:41:38.785Z,14.30
2023-09-28T06:44:06.219Z,17.77
2023-09-28T06:46:33.578Z,17.27
2023-09-28T06:49:00.897Z,15.02
2023-09-28T06:51:28.493Z,12.93
2023-09-28T06:53:55.952Z,15.27
2023-09-28T06:56:23.343Z,13.25
2023-09-28T06:58:52.082Z,12.85
2023-09-28T07:01:19.455Z,12.90
2023-09-28T07:03:46.967Z,13.32
2023-09-28T07:06:14.098Z,13.23
2023-09-28T07:08:41.189Z,12.30
2023-09-28T07:11:08.842Z,11.35
2023-09-28T07:13:37.281Z,15.65
2023-09-28T07:16:04.504Z,12.55
2023-09-28T07:18:31.606Z,12.13
2023-09-28T07:20:58.758Z,15.40
2023-09-28T07:23:25.882Z,12.40
2023-09-28T07:25:53.344Z,11.68
2023-09-28T07:28:21.362Z,15.55
2023-09-28T07:30:48.628Z,12.10
2023-09-28T07:33:17.173Z,11.10
2023-09-28T07:38:11.931Z,12.35
2023-09-28T07:40:47.510Z,11.80
2023-09-28T07:43:16.376Z,12.38
2023-09-28T07:45:44.376Z,11.52
2023-09-28T07:48:12.433Z,11.85
2023-09-28T07:50:39.917Z,12.02
2023-09-28T07:53:07.180Z,11.30
2023-09-28T07:55:34.382Z,10.68
2023-09-28T07:58:18.976Z,9.73
2023-09-28T08:00:46.958Z,10.40
2023-09-28T08:03:14.471Z,12.77
2023-09-28T08:05:41.840Z,10.25
2023-09-28T08:08:15.827Z,10.90
2023-09-28T08:10:44.052Z,8.73
2023-09-28T08:13:14.493Z,11.15
2023-09-28T08:15:42.306Z,8.77
2023-09-28T08:18:10.210Z,7.45
2023-09-28T08:20:38.206Z,7.38
2023-09-28T08:23:06.384Z,8.75
2023-09-28T08:25:33.966Z,6.95
2023-09-28T08:28:01.125Z,8.75
2023-09-28T08:30:28.250Z,7.13
2023-09-28T08:32:55.420Z,6.43
2023-09-28T08:35:22.873Z,7.57
2023-09-28T08:37:50.064Z,7.00
2023-09-28T08:40:17.444Z,7.22
2023-09-28T08:42:48.481Z,7.65
2023-09-28T08:45:17.781Z,11.23
2023-09-28T08:47:49.996Z,7.07
2023-09-28T08:50:22.092Z,8.98
2023-09-28T08:52:49.572Z,9.75
2023-09-28T08:55:17.347Z,7.43
2023-09-28T08:57:45.341Z,7.03
2023-09-28T09:00:15.143Z,6.05
2023-09-28T09:02:46.062Z,8.02
2023-09-28T09:05:13.561Z,9.13
2023-09-28T09:07:43.872Z,9.95
2023-09-28T09:10:15.562Z,8.45
2023-09-28T09:12:42.655Z,7.00
2023-09-28T09:15:10.151Z,7.30
2023-09-28T09:17:38.989Z,7.57
2023-09-28T09:22:48.912Z,9.15
2023-09-28T09:25:25.366Z,9.20
2023-09-28T09:27:53.664Z,6.88
2023-09-28T09:30:22.149Z,5.53
2023-09-28T09:32:49.509Z,8.77
2023-09-28T09:35:17.767Z,8.40
2023-09-28T09:37:52.173Z,8.13
2023-09-28T09:40:19.827Z,8.18
2023-09-28T09:42:46.988Z,7.35
2023-09-28T09:45:14.466Z,9.20
2023-09-28T09:47:47.475Z,6.22
2023-09-28T09:50:15.657Z,8.05
2023-09-28T09:52:44.895Z,7.95
2023-09-28T09:55:13.206Z,7.75
2023-09-28T09:57:43.543Z,6.95
2023-09-28T10:00:17.050Z,4.85
2023-09-28T10:02:44.540Z,6.18
2023-09-28T10:05:14.443Z,7.85
2023-09-28T10:10:13.720Z,7.15
2023-09-28T10:12:42.149Z,7.90
2023-09-28T10:15:09.959Z,7.90
2023-09-28T10:17:37.212Z,10.80
2023-09-28T10:20:05.399Z,5.97
2023-09-28T10:22:32.885Z,6.30
2023-09-28T10:25:00.038Z,6.43
2023-09-28T10:27:27.121Z,6.35
2023-09-28T10:30:12.904Z,6.57
2023-09-28T10:32:41.599Z,7.07
2023-09-28T10:35:31.265Z,6.90
2023-09-28T10:38:17.655Z,10.07
2023-09-28T10:40:51.348Z,7.75
2023-09-28T10:43:31.822Z,6.80
2023-09-28T10:45:59.113Z,6.90
2023-09-28T10:48:26.753Z,6.82
2023-09-28T10:50:57.536Z,6.22
2023-09-28T10:53:24.710Z,6.97
2023-09-28T10:55:51.825Z,6.90
2023-09-28T10:58:19.171Z,6.07
2023-09-28T11:00:46.262Z,6.38
2023-09-28T11:03:13.508Z,5.50
2023-09-28T11:05:42.072Z,5.82
2023-09-28T11:08:09.855Z,6.75
2023-09-28T11:10:37.074Z,4.53
2023-09-28T11:13:04.173Z,6.43
2023-09-28T11:15:31.236Z,4.95
2023-09-28T11:17:58.354Z,4.60
2023-09-28T11:20:26.388Z,6.15
2023-09-28T11:22:57.661Z,6.75
2023-09-28T11:25:43.168Z,6.10
2023-09-28T11:30:39.680Z,7.00
2023-09-28T11:33:07.582Z,5.60
2023-09-28T11:35:35.539Z,4.68
2023-09-28T11:38:07.510Z,6.95
2023-09-28T11:40:34.847Z,5.20
2023-09-28T11:43:02.187Z,5.78
2023-09-28T11:45:30.134Z,6.18
2023-09-28T11:50:27.781Z,4.78
2023-09-28T11:52:54.829Z,6.70
2023-09-28T11:55:23.114Z,6.55
2023-09-28T12:00:20.284Z,6.32
2023-09-28T12:02:47.851Z,4.15
2023-09-28T12:05:17.785Z,4.03
2023-09-28T12:07:44.969Z,4.93
2023-09-28T12:10:15.800Z,6.05
2023-09-28T12:12:43.243Z,4.05
2023-09-28T12:15:13.481Z,4.40
2023-09-28T12:17:41.040Z,5.07
2023-09-28T12:20:09.962Z,3.95
2023-09-28T12:22:37.866Z,6.22
2023-09-28T12:25:06.155Z,3.88
2023-09-28T12:27:37.045Z,5.45
2023-09-28T12:30:04.791Z,3.72
2023-09-28T12:32:32.290Z,4.80
2023-09-28T12:35:00.583Z,3.58
2023-09-28T12:37:27.715Z,4.13
2023-09-28T12:39:54.894Z,4.15
2023-09-28T12:42:25.818Z,9.68
2023-09-28T12:44:53.257Z,4.13
2023-09-28T12:47:23.724Z,4.20
2023-09-28T12:49:51.954Z,3.50
2023-09-28T12:52:19.080Z,3.20
2023-09-28T12:54:47.647Z,6.25
2023-09-28T12:57:14.718Z,4.07
2023-09-28T12:59:41.861Z,5.68
2023-09-28T13:02:09.232Z,4.47
2023-09-28T13:04:36.483Z,4.72
2023-09-28T13:07:05.142Z,6.65
2023-09-28T13:09:33.651Z,3.60
2023-09-28T13:12:01.617Z,6.40
2023-09-28T13:16:56.307Z,4.20
2023-09-28T13:19:26.674Z,6.22
2023-09-28T13:22:02.882Z,4.38
2023-09-28T13:24:31.960Z,4.40
2023-09-28T13:27:06.575Z,3.55
2023-09-28T13:29:34.482Z,4.97
2023-09-28T13:32:07.448Z,5.57
2023-09-28T13:34:34.576Z,5.95
2023-09-28T13:37:01.616Z,4.35
2023-09-28T13:39:29.038Z,8.07
2023-09-28T13:42:01.892Z,3.92
2023-09-28T13:44:30.079Z,3.10
2023-09-28T13:46:58.091Z,4.60
2023-09-28T13:49:25.455Z,5.38
2023-09-28T13:51:58.786Z,5.05
2023-09-28T13:54:26.816Z,5.53
2023-09-28T13:57:02.557Z,6.47
2023-09-28T13:59:30.283Z,4.10
2023-09-28T14:01:58.805Z,4.40
2023-09-28T14:04:26.274Z,5.45
2023-09-28T14:06:56.065Z,4.57
2023-09-28T14:09:28.160Z,5.32
2023-09-28T14:11:56.832Z,3.75
2023-09-28T14:14:24.250Z,4.53
2023-09-28T14:16:51.390Z,3.45
2023-09-28T14:19:18.609Z,2.67
2023-09-28T14:21:45.879Z,3.30
2023-09-28T14:24:13.446Z,3.63
2023-09-28T14:26:43.490Z,2.70
2023-09-28T14:29:12.831Z,2.42
2023-09-28T14:31:40.304Z,4.63
2023-09-28T14:34:07.515Z,4.63
2023-09-28T14:36:34.781Z,3.67
2023-09-28T14:39:01.885Z,4.00
2023-09-28T14:41:29.629Z,3.08
2023-09-28T14:43:57.855Z,4.68
2023-09-28T14:46:25.126Z,3.60
2023-09-28T14:48:52.671Z,4.63
2023-09-28T14:51:19.712Z,4.60
2023-09-28T14:53:47.014Z,4.75
2023-09-28T14:56:14.728Z,3.78
2023-09-28T14:58:41.942Z,3.47
2023-09-28T15:01:09.392Z,3.58
2023-09-28T15:03:36.761Z,3.42
2023-09-28T15:06:04.938Z,4.53
2023-09-28T15:08:33.373Z,3.97
2023-09-28T15:11:00.475Z,3.03
2023-09-28T15:13:27.806Z,3.42
2023-09-28T15:15:55.033Z,3.67
2023-09-28T15:18:22.185Z,3.38
2023-09-28T15:20:49.364Z,3.83
2023-09-28T15:23:16.483Z,3.33
2023-09-28T15:25:43.637Z,4.00
2023-09-28T15:28:10.858Z,5.72
2023-09-28T15:30:40.206Z,6.50
2023-09-28T15:33:08.646Z,3.95
2023-09-28T15:35:35.948Z,5.07
2023-09-28T15:38:04.871Z,5.45
2023-09-28T15:40:36.485Z,6.47
2023-09-28T15:43:03.806Z,6.10
2023-09-28T15:45:30.887Z,6.95
2023-09-28T15:47:59.225Z,3.97
2023-09-28T15:50:26.499Z,4.50
2023-09-28T15:52:53.586Z,5.13
2023-09-28T15:55:20.632Z,6.13
2023-09-28T15:57:47.741Z,3.80
2023-09-28T16:00:34.531Z,4.00
2023-09-28T16:03:02.749Z,6.18
2023-09-28T16:05:30.078Z,4.63
2023-09-28T16:07:59.759Z,3.95
2023-09-28T16:10:27.259Z,8.27
2023-09-28T16:12:54.831Z,4.00
2023-09-28T16:15:21.980Z,5.35
2023-09-28T16:17:49.539Z,5.85
2023-09-28T16:20:16.899Z,4.55
2023-09-28T16:22:44.064Z,6.63
2023-09-28T16:25:11.203Z,9.55
2023-09-28T16:27:38.291Z,5.95
2023-09-28T16:30:05.546Z,4.93
2023-09-28T16:32:32.701Z,8.38
2023-09-28T16:34:59.916Z,4.85
2023-09-28T16:37:27.056Z,6.15
2023-09-28T16:39:54.487Z,4.93
2023-09-28T16:42:21.550Z,6.18
2023-09-28T16:44:48.663Z,6.15
2023-09-28T16:47:16.269Z,5.47
2023-09-28T16:49:43.434Z,4.00
2023-09-28T16:52:10.553Z,4.55
2023-09-28T16:54:37.632Z,5.57
2023-09-28T16:57:04.690Z,4.50
2023-09-28T16:59:31.829Z,4.95
2023-09-28T17:01:59.178Z,4.10
2023-09-28T17:04:26.278Z,3.58
2023-09-28T17:06:53.512Z,3.95
2023-09-28T17:09:20.734Z,6.60
2023-09-28T17:11:47.903Z,4.72
2023-09-28T17:14:15.022Z,5.35
2023-09-28T17:16:42.406Z,5.97
2023-09-28T17:19:09.669Z,6.65
2023-09-28T17:21:36.874Z,4.75
2023-09-28T17:24:04.656Z,4.38
2023-09-28T17:26:31.866Z,6.13
2023-09-28T17:28:59.865Z,5.65
2023-09-28T17:31:26.957Z,7.45
2023-09-28T17:33:53.987Z,9.30
2023-09-28T17:36:23.013Z,6.78
2023-09-28T17:38:50.321Z,8.23
2023-09-28T17:41:17.424Z,6.38
2023-09-28T17:43:44.551Z,5.30
2023-09-28T17:46:11.665Z,6.13
2023-09-28T17:48:39.118Z,8.10
2023-09-28T17:51:06.699Z,5.70
2023-09-28T17:53:33.874Z,6.53
2023-09-28T17:56:00.979Z,7.68
2023-09-28T17:58:28.018Z,6.05
2023-09-28T18:00:55.137Z,6.80
2023-09-28T18:03:22.250Z,6.20
2023-09-28T18:05:49.456Z,7.43
2023-09-28T18:08:16.538Z,6.80
2023-09-28T18:10:43.653Z,6.88
2023-09-28T18:13:11.075Z,6.85
2023-09-28T18:15:38.343Z,5.60
2023-09-28T18:18:06.128Z,8.20
2023-09-28T18:20:33.313Z,6.07
2023-09-28T18:23:00.392Z,8.10
2023-09-28T18:25:27.489Z,8.70
2023-09-28T18:27:54.642Z,10.65
2023-09-28T18:30:21.739Z,7.40
2023-09-28T18:32:49.054Z,8.15
2023-09-28T18:35:16.493Z,9.00
2023-09-28T18:37:43.718Z,7.22
2023-09-28T18:40:11.198Z,6.55
2023-09-28T18:42:40.228Z,7.75
2023-09-28T18:47:35.811Z,7.32
2023-09-28T18:50:02.996Z,9.07
2023-09-28T18:52:30.132Z,7.75
2023-09-28T18:54:57.375Z,8.65
2023-09-28T18:57:25.419Z,9.30
2023-09-28T18:59:52.750Z,8.38
2023-09-28T19:02:19.897Z,6.45
2023-09-28T19:04:47.005Z,6.28
2023-09-28T19:07:15.389Z,7.07
2023-09-28T19:09:42.449Z,9.65
2023-09-28T19:12:10.997Z,9.98
2023-09-28T19:14:38.820Z,9.20
2023-09-28T19:17:06.021Z,7.00
2023-09-28T19:19:33.269Z,10.00
2023-09-28T19:22:00.561Z,8.50
2023-09-28T19:24:27.728Z,7.95
2023-09-28T19:26:54.811Z,11.45
2023-09-28T19:29:21.901Z,10.38
2023-09-28T19:31:55.987Z,7.93
2023-09-28T19:34:23.822Z,9.30
2023-09-28T19:36:51.153Z,9.20
2023-09-28T19:39:20.704Z,8.18
2023-09-28T19:41:47.908Z,9.38
2023-09-28T19:44:15.530Z,11.88
2023-09-28T19:46:42.668Z,7.97
2023-09-28T19:49:09.761Z,9.75
2023-09-28T19:51:36.893Z,9.27
2023-09-28T19:54:04.050Z,12.73
2023-09-28T19:56:31.426Z,14.07
2023-09-28T19:58:58.874Z,10.02
2023-09-28T20:01:26.476Z,10.45
2023-09-28T20:03:54.017Z,10.40
2023-09-28T20:06:21.556Z,10.18
2023-09-28T20:08:48.664Z,8.52
2023-09-28T20:11:16.490Z,8.90
2023-09-28T20:13:43.638Z,10.32
2023-09-28T20:16:11.356Z,10.45
2023-09-28T20:18:38.493Z,10.18
2023-09-28T20:21:05.633Z,9.35
2023-09-28T20:23:32.841Z,9.10
2023-09-28T20:25:59.989Z,6.72
2023-09-28T20:28:27.741Z,9.55
2023-09-28T20:30:55.213Z,8.27
2023-09-28T20:33:23.088Z,8.32
2023-09-28T20:35:50.305Z,7.47
2023-09-28T20:38:17.834Z,8.98
2023-09-28T20:40:44.901Z,8.68
2023-09-28T20:43:11.983Z,7.25
2023-09-28T20:45:39.588Z,7.90
2023-09-28T20:48:10.320Z,7.18
2023-09-28T20:50:37.616Z,8.52
2023-09-28T20:53:05.029Z,9.32
2023-09-28T20:55:32.294Z,8.60
2023-09-28T20:57:59.444Z,9.05
2023-09-28T21:00:27.470Z,8.60
2023-09-28T21:02:54.809Z,8.95
2023-09-28T21:05:22.833Z,7.88
2023-09-28T21:07:50.024Z,6.95
2023-09-28T21:10:17.439Z,11.50
2023-09-28T21:12:44.615Z,9.38
2023-09-28T21:15:12.051Z,10.38
2023-09-28T21:17:40.409Z,9.98
2023-09-28T21:20:14.957Z,7.78
2023-09-28T21:22:42.292Z,10.07
2023-09-28T21:25:09.773Z,10.20
2023-09-28T21:27:36.897Z,10.50
2023-09-28T21:30:04.691Z,8.55
2023-09-28T21:32:31.856Z,9.52
2023-09-28T21:34:59.112Z,7.65
2023-09-28T21:37:26.167Z,8.63
2023-09-28T21:39:53.729Z,10.35
2023-09-28T21:42:21.229Z,8.40
2023-09-28T21:44:48.345Z,10.10
2023-09-28T21:47:15.751Z,9.27
2023-09-28T21:49:42.808Z,7.13
2023-09-28T21:52:09.874Z,8.23
2023-09-28T21:54:38.859Z,10.27
2023-09-28T21:57:06.582Z,9.38
2023-09-28T21:59:33.657Z,7.35
2023-09-28T22:02:00.731Z,8.05
2023-09-28T22:04:27.817Z,8.30
2023-09-28T22:06:54.983Z,7.05
2023-09-28T22:09:22.579Z,7.32
2023-09-28T22:11:49.941Z,7.40
2023-09-28T22:14:17.160Z,7.90
2023-09-28T22:16:44.736Z,7.88
2023-09-28T22:19:12.017Z,9.85
2023-09-28T22:21:39.234Z,7.25
2023-09-28T22:24:07.910Z,8.60
2023-09-28T22:26:35.130Z,10.85
2023-09-28T22:29:02.881Z,8.20
2023-09-28T22:31:30.153Z,7.78
2023-09-28T22:33:57.261Z,9.02
2023-09-28T22:36:24.311Z,8.25
2023-09-28T22:38:51.385Z,8.85
2023-09-28T22:41:18.590Z,12.05
2023-09-28T22:43:45.664Z,10.02
2023-09-28T22:46:12.800Z,7.35
2023-09-28T22:48:39.872Z,7.78
2023-09-28T22:51:06.987Z,7.32
2023-09-28T22:53:34.274Z,8.27
2023-09-28T22:56:01.416Z,7.00
2023-09-28T22:58:28.520Z,7.63
2023-09-28T23:00:55.908Z,9.98
2023-09-28T23:03:23.217Z,6.20
2023-09-28T23:05:50.486Z,7.18
2023-09-28T23:08:17.650Z,11.43
2023-09-28T23:10:45.231Z,7.35
2023-09-28T23:13:12.551Z,8.75
2023-09-28T23:15:40.961Z,10.18
2023-09-28T23:18:08.199Z,7.78
2023-09-28T23:20:36.084Z,11.73
2023-09-28T23:23:04.038Z,10.70
2023-09-28T23:25:31.137Z,8.60
2023-09-28T23:27:58.322Z,6.78
2023-09-28T23:30:25.475Z,9.32
2023-09-28T23:32:53.043Z,8.90
2023-09-28T23:35:21.498Z,7.50
2023-09-28T23:37:49.083Z,11.32
2023-09-28T23:40:22.441Z,9.02
2023-09-28T23:42:50.465Z,7.03
2023-09-28T23:45:18.169Z,8.75
2023-09-28T23:47:46.117Z,8.73
2023-09-28T23:50:13.577Z,7.63
2023-09-28T23:52:46.963Z,8.15
2023-09-28T23:55:16.282Z,9.48
2023-09-28T23:57:44.746Z,9.13
